»·PEaware :: GTI86 KSFO-MMMX

GTI86 :: KSFO-MMMX

FLIGHT INFORMATION

Flight Status: Arrived
Operator:
Atlas Air
More flights by this operator :: More flights under this callsign
Pilot: Cooper L. (8467)
Aircraft: Unknown
(B748)
More flights by this aircraft type
Origin: KSFO San Francisco Intl
United States
Destination: MMMX Lic Benito Juarez Intl
Mexico
More flights between these airports :: More routes between these airports
Route: +WESLA3 CISKO FLW V485 VTU V299 LAX V25 MZB TIJ UT4 LMM UJ6 CUL UT2 AGU UJ33 TIKEB TIKEB1B
File this flight plan on PilotEdge
Remarks:
Altitude:
(Current/Filed)
37,000ft
Speed:
(Current/Filed)
475kts
Departed: 29-Jan-17 01:22 PM
Arrived: 29-Jan-17 04:48 PM
Distance/Time
Traveled:
1634nm/3:26
Distance/Time
To Go:
Arrived

Flight Plot

Page will automatically refresh every two minutes.


Map Options




Map Legend


Flown Route
Filed Route
Departure Airport
Arrival Airport
Navaid (VOR, NDB)
Fix

Horizontal Profiles

Position Reports

Time Latitude Longitude Heading Altitude Ground
Speed
29-Jan-17 12:55 37.636596 -122.388071 60 28ft 0kts
29-Jan-17 12:56 37.636596 -122.388071 60 28ft 0kts
29-Jan-17 12:57 37.636596 -122.388071 60 28ft 0kts
29-Jan-17 12:58 37.636596 -122.388071 60 28ft 0kts
29-Jan-17 12:59 37.636596 -122.388071 60 28ft 0kts
29-Jan-17 13:00 37.636596 -122.388071 60 28ft 0kts
29-Jan-17 13:01 37.636596 -122.388071 60 28ft 0kts
29-Jan-17 13:02 37.636596 -122.388071 60 28ft 0kts
29-Jan-17 13:03 37.636596 -122.388071 60 28ft 0kts
29-Jan-17 13:04 37.636596 -122.388071 60 28ft 0kts
29-Jan-17 13:05 37.636596 -122.388071 60 28ft 0kts
29-Jan-17 13:06 37.636596 -122.388071 60 28ft 0kts
29-Jan-17 13:07 37.636596 -122.388071 60 28ft 0kts
29-Jan-17 13:08 37.636596 -122.388071 60 28ft 0kts
29-Jan-17 13:09 37.636596 -122.388071 60 28ft 0kts
29-Jan-17 13:10 37.636559 -122.388151 60 28ft 1kts
29-Jan-17 13:11 37.636447 -122.388698 98 28ft 1kts
29-Jan-17 13:12 37.636613 -122.389049 146 28ft 0kts
29-Jan-17 13:13 37.636613 -122.389049 146 28ft 0kts
29-Jan-17 13:14 37.635752 -122.388320 148 28ft 21kts
29-Jan-17 13:15 37.633334 -122.391620 201 28ft 11kts
29-Jan-17 13:16 37.630610 -122.392374 158 28ft 6kts
29-Jan-17 13:17 37.627703 -122.387211 117 28ft 35kts
29-Jan-17 13:18 37.623628 -122.377460 117 28ft 26kts
29-Jan-17 13:19 37.621204 -122.371667 120 28ft 12kts
29-Jan-17 13:20 37.617396 -122.362667 117 28ft 37kts
29-Jan-17 13:21 37.614834 -122.356890 156 28ft 3kts
29-Jan-17 13:22 37.620770 -122.374542 299 54ft 183kts
29-Jan-17 13:23 37.645329 -122.435866 298 2155ft 233kts
29-Jan-17 13:24 37.669822 -122.510523 263 4764ft 265kts
29-Jan-17 13:25 37.638367 -122.593724 216 8000ft 281kts
29-Jan-17 13:26 37.569296 -122.574859 122 10523ft 314kts
29-Jan-17 13:27 37.515693 -122.486815 146 13557ft 330kts
29-Jan-17 13:28 37.442909 -122.414250 139 16547ft 344kts
29-Jan-17 13:29 37.371825 -122.332107 138 19321ft 354kts
29-Jan-17 13:30 37.299850 -122.246381 138 20299ft 362kts
29-Jan-17 13:31 37.229942 -122.162671 138 22629ft 372kts
29-Jan-17 13:32 37.154567 -122.072594 138 24835ft 383kts
29-Jan-17 13:33 37.077277 -121.980471 138 27049ft 389kts
29-Jan-17 13:34 36.999151 -121.887590 138 29135ft 393kts
29-Jan-17 13:35 36.920108 -121.791520 138 30736ft 408kts
29-Jan-17 13:36 36.837164 -121.692595 138 31997ft 427kts
29-Jan-17 13:37 36.749225 -121.589092 138 33294ft 443kts
29-Jan-17 13:38 36.658827 -121.483088 137 34630ft 455kts
29-Jan-17 13:39 36.568279 -121.377238 137 35769ft 468kts
29-Jan-17 13:40 36.473868 -121.267275 137 36891ft 478kts
29-Jan-17 13:41 36.375704 -121.154772 139 37425ft 494kts
29-Jan-17 13:42 36.268674 -121.044645 141 37413ft 522kts
29-Jan-17 13:43 36.155804 -120.931393 141 37428ft 525kts
29-Jan-17 13:44 36.050163 -120.822628 140 37425ft 525kts
29-Jan-17 13:45 35.938834 -120.707583 141 37425ft 525kts
29-Jan-17 13:46 35.827161 -120.595039 142 37426ft 526kts
29-Jan-17 13:47 35.717526 -120.485163 141 37427ft 526kts
29-Jan-17 13:48 35.604673 -120.372034 141 37432ft 529kts
29-Jan-17 13:49 35.490896 -120.258656 142 37429ft 529kts
29-Jan-17 13:50 35.377348 -120.146736 142 37410ft 530kts
29-Jan-17 13:51 35.265045 -120.036644 142 37320ft 529kts
29-Jan-17 13:52 35.151345 -119.924211 141 37347ft 530kts
29-Jan-17 13:53 35.037123 -119.814373 145 37344ft 529kts
29-Jan-17 13:54 34.916272 -119.713860 147 37319ft 529kts
29-Jan-17 13:55 34.798333 -119.616762 147 37318ft 529kts
29-Jan-17 13:56 34.677649 -119.515703 146 37319ft 530kts
29-Jan-17 13:57 34.556831 -119.414787 147 37320ft 530kts
29-Jan-17 13:58 34.436661 -119.315168 147 37319ft 530kts
29-Jan-17 13:59 34.317420 -119.217124 147 37293ft 530kts
29-Jan-17 14:00 34.196388 -119.117509 147 37319ft 530kts
29-Jan-17 14:01 34.091098 -118.996405 117 37335ft 535kts
29-Jan-17 14:02 34.053348 -118.838575 99 37318ft 534kts
29-Jan-17 14:03 34.015628 -118.670042 111 37293ft 535kts
29-Jan-17 14:04 33.960198 -118.516385 113 37291ft 535kts
29-Jan-17 14:05 33.888693 -118.368562 139 37303ft 533kts
29-Jan-17 14:06 33.773140 -118.264695 142 37293ft 532kts
29-Jan-17 14:07 33.665003 -118.148530 138 37270ft 533kts
29-Jan-17 14:08 33.555942 -118.031120 140 37247ft 533kts
29-Jan-17 14:09 33.445099 -117.915908 139 37242ft 533kts
29-Jan-17 14:10 33.335399 -117.799972 139 37234ft 534kts
29-Jan-17 14:11 33.225935 -117.684913 140 37023ft 533kts
29-Jan-17 14:12 33.115030 -117.569716 140 36815ft 532kts
29-Jan-17 14:13 33.003653 -117.454288 140 37085ft 533kts
29-Jan-17 14:14 32.893408 -117.340185 140 37237ft 534kts
29-Jan-17 14:15 32.782595 -117.225842 138 37237ft 534kts
29-Jan-17 14:16 32.679904 -117.101068 136 37240ft 535kts
29-Jan-17 14:17 32.572789 -116.984970 141 37246ft 534kts
29-Jan-17 14:18 32.465842 -116.865110 133 37291ft 536kts
29-Jan-17 14:19 32.368619 -116.733980 133 37263ft 536kts
29-Jan-17 14:20 32.268340 -116.606004 134 37263ft 536kts
29-Jan-17 14:21 32.166676 -116.478997 134 37264ft 536kts
29-Jan-17 14:22 32.064939 -116.351105 134 37265ft 537kts
29-Jan-17 14:23 31.963024 -116.223404 135 37266ft 537kts
29-Jan-17 14:24 31.860952 -116.096162 135 37267ft 537kts
29-Jan-17 14:25 31.758355 -115.968732 135 37269ft 538kts
29-Jan-17 14:26 31.656659 -115.842038 134 37263ft 538kts
29-Jan-17 14:27 31.555279 -115.714415 135 37341ft 538kts
29-Jan-17 14:28 31.452557 -115.587786 135 37344ft 538kts
29-Jan-17 14:29 31.349829 -115.463575 136 37318ft 538kts
29-Jan-17 14:30 31.246416 -115.338054 135 37319ft 538kts
29-Jan-17 14:31 31.143571 -115.212562 135 37320ft 538kts
29-Jan-17 14:32 31.040121 -115.086795 135 37321ft 538kts
29-Jan-17 14:33 30.937010 -114.961841 135 37322ft 538kts
29-Jan-17 14:34 30.834150 -114.836845 135 37316ft 538kts
29-Jan-17 14:35 30.733788 -114.714569 136 37317ft 538kts
29-Jan-17 14:36 30.629856 -114.589876 136 37318ft 538kts
29-Jan-17 14:37 30.525864 -114.465974 136 37319ft 539kts
29-Jan-17 14:38 30.422358 -114.343006 136 37318ft 539kts
29-Jan-17 14:39 30.317615 -114.220305 136 37320ft 539kts
29-Jan-17 14:40 30.212990 -114.096955 136 37321ft 539kts
29-Jan-17 14:41 30.108748 -113.973842 136 37322ft 539kts
29-Jan-17 14:42 30.004663 -113.850866 136 37315ft 539kts
29-Jan-17 14:43 29.900962 -113.727160 136 37157ft 539kts
29-Jan-17 14:44 29.795808 -113.604930 137 37156ft 539kts
29-Jan-17 14:45 29.691003 -113.482766 136 37157ft 539kts
29-Jan-17 14:46 29.586382 -113.361000 136 37158ft 539kts
29-Jan-17 14:47 29.483448 -113.241975 136 37159ft 539kts
29-Jan-17 14:48 29.378057 -113.121372 137 37448ft 541kts
29-Jan-17 14:49 29.271863 -113.000639 136 38914ft 541kts
29-Jan-17 14:50 29.166365 -112.879739 136 39153ft 540kts
29-Jan-17 14:51 29.062006 -112.757842 136 39154ft 540kts
29-Jan-17 14:52 28.960811 -112.641602 137 39154ft 540kts
29-Jan-17 14:53 28.854701 -112.521343 137 39156ft 540kts
29-Jan-17 14:54 28.748688 -112.401536 137 39157ft 540kts
29-Jan-17 14:55 28.642536 -112.281731 137 39159ft 540kts
29-Jan-17 14:56 28.536147 -112.162004 137 39160ft 540kts
29-Jan-17 14:57 28.429896 -112.042899 137 39159ft 540kts
29-Jan-17 14:58 28.322859 -111.924714 137 39055ft 539kts
29-Jan-17 14:59 28.216924 -111.805519 137 39045ft 540kts
29-Jan-17 15:00 28.110757 -111.685573 137 39046ft 540kts
29-Jan-17 15:01 28.004321 -111.567489 137 39047ft 540kts
29-Jan-17 15:02 27.900377 -111.452987 137 39042ft 539kts
29-Jan-17 15:03 27.793584 -111.335322 137 39050ft 540kts
29-Jan-17 15:04 27.686263 -111.217199 137 39051ft 540kts
29-Jan-17 15:05 27.579411 -111.100076 137 39052ft 540kts
29-Jan-17 15:06 27.474640 -110.985633 137 39054ft 540kts
29-Jan-17 15:07 27.367589 -110.869661 138 39043ft 540kts
29-Jan-17 15:08 27.260498 -110.751892 138 39045ft 540kts
29-Jan-17 15:09 27.154069 -110.635823 139 39047ft 535kts
29-Jan-17 15:10 27.047538 -110.520856 139 39048ft 535kts
29-Jan-17 15:11 26.943812 -110.409214 139 39049ft 535kts
29-Jan-17 15:12 26.836948 -110.294366 139 39050ft 535kts
29-Jan-17 15:13 26.730126 -110.179872 139 39051ft 535kts
29-Jan-17 15:14 26.622972 -110.065346 139 39052ft 535kts
29-Jan-17 15:15 26.515889 -109.951212 139 39053ft 535kts
29-Jan-17 15:16 26.409583 -109.837599 139 39045ft 535kts
29-Jan-17 15:17 26.302900 -109.723736 139 39046ft 535kts
29-Jan-17 15:18 26.195526 -109.610279 139 39047ft 535kts
29-Jan-17 15:19 26.087865 -109.496872 139 39048ft 534kts
29-Jan-17 15:20 25.980482 -109.383906 139 39049ft 534kts
29-Jan-17 15:21 25.872882 -109.270989 139 39050ft 534kts
29-Jan-17 15:22 25.765269 -109.158347 139 39051ft 535kts
29-Jan-17 15:23 25.660585 -109.041852 130 39058ft 539kts
29-Jan-17 15:24 25.580338 -108.901937 121 39054ft 542kts
29-Jan-17 15:25 25.506234 -108.759135 123 39045ft 542kts
29-Jan-17 15:26 25.426966 -108.618631 125 39047ft 541kts
29-Jan-17 15:27 25.345022 -108.479618 125 39048ft 541kts
29-Jan-17 15:28 25.264261 -108.340110 125 39050ft 541kts
29-Jan-17 15:29 25.184029 -108.200556 124 39051ft 541kts
29-Jan-17 15:30 25.103436 -108.061093 125 39052ft 541kts
29-Jan-17 15:31 25.022503 -107.921644 126 39054ft 542kts
29-Jan-17 15:32 24.942742 -107.782687 125 39045ft 541kts
29-Jan-17 15:33 24.862530 -107.643847 125 39046ft 541kts
29-Jan-17 15:34 24.780912 -107.505081 125 39048ft 541kts
29-Jan-17 15:35 24.701128 -107.365698 124 39049ft 542kts
29-Jan-17 15:36 24.622559 -107.225115 124 39050ft 542kts
29-Jan-17 15:37 24.543614 -107.085445 124 39052ft 542kts
29-Jan-17 15:38 24.464149 -106.945777 124 39053ft 542kts
29-Jan-17 15:39 24.384947 -106.806992 124 39048ft 540kts
29-Jan-17 15:40 24.305763 -106.667723 125 39046ft 541kts
29-Jan-17 15:41 24.226093 -106.528565 125 39048ft 541kts
29-Jan-17 15:42 24.146189 -106.389340 125 39049ft 542kts
29-Jan-17 15:43 24.066117 -106.250478 125 39051ft 542kts
29-Jan-17 15:44 23.986973 -106.113632 125 39052ft 541kts
29-Jan-17 15:45 23.906763 -105.975069 125 39053ft 541kts
29-Jan-17 15:46 23.827383 -105.837579 125 39045ft 541kts
29-Jan-17 15:47 23.748155 -105.699209 125 39046ft 542kts
29-Jan-17 15:48 23.667664 -105.561596 125 39081ft 541kts
29-Jan-17 15:49 23.586984 -105.424434 125 39296ft 542kts
29-Jan-17 15:50 23.506518 -105.286714 125 39368ft 542kts
29-Jan-17 15:51 23.425831 -105.149771 126 39377ft 542kts
29-Jan-17 15:52 23.343728 -105.013101 126 39378ft 541kts
29-Jan-17 15:53 23.263555 -104.878157 126 39371ft 541kts
29-Jan-17 15:54 23.183345 -104.740158 125 39370ft 542kts
29-Jan-17 15:55 23.102504 -104.603458 126 39371ft 542kts
29-Jan-17 15:56 23.020828 -104.466961 126 39373ft 541kts
29-Jan-17 15:57 22.939123 -104.330542 126 39374ft 541kts
29-Jan-17 15:58 22.857586 -104.194505 126 39375ft 541kts
29-Jan-17 15:59 22.776050 -104.058702 126 39396ft 541kts
29-Jan-17 16:00 22.693791 -103.922556 126 39405ft 541kts
29-Jan-17 16:01 22.612801 -103.787198 126 39396ft 541kts
29-Jan-17 16:02 22.531128 -103.651171 127 39396ft 541kts
29-Jan-17 16:03 22.449078 -103.516805 127 39398ft 541kts
29-Jan-17 16:04 22.366195 -103.382685 126 39401ft 541kts
29-Jan-17 16:05 22.285609 -103.247921 126 39403ft 541kts
29-Jan-17 16:06 22.203874 -103.112952 127 39404ft 541kts
29-Jan-17 16:07 22.121400 -102.978217 126 39325ft 541kts
29-Jan-17 16:08 22.038904 -102.844299 128 39312ft 539kts
29-Jan-17 16:09 21.954905 -102.711257 127 39315ft 540kts
29-Jan-17 16:10 21.871687 -102.577082 127 39317ft 540kts
29-Jan-17 16:11 21.788883 -102.443318 127 39318ft 540kts
29-Jan-17 16:12 21.706340 -102.308852 123 39320ft 542kts
29-Jan-17 16:13 21.652005 -102.187446 115 39321ft 547kts
29-Jan-17 16:14 21.594325 -102.036740 116 39322ft 546kts
29-Jan-17 16:15 21.522524 -101.865002 117 39339ft 546kts
29-Jan-17 16:16 21.460960 -101.716732 117 39340ft 545kts
29-Jan-17 16:17 21.398846 -101.570027 118 39345ft 545kts
29-Jan-17 16:18 21.336036 -101.422961 117 39346ft 546kts
29-Jan-17 16:19 21.280455 -101.300796 124 39349ft 548kts
29-Jan-17 16:20 21.197977 -101.165257 128 39350ft 545kts
29-Jan-17 16:21 21.114501 -101.030182 127 39353ft 545kts
29-Jan-17 16:22 21.034558 -100.895052 126 39351ft 546kts
29-Jan-17 16:23 20.954984 -100.758119 126 39342ft 545kts
29-Jan-17 16:24 20.874491 -100.622085 126 39343ft 545kts
29-Jan-17 16:25 20.793024 -100.486188 126 39345ft 544kts
29-Jan-17 16:26 20.711843 -100.350796 126 39345ft 544kts
29-Jan-17 16:27 20.632394 -100.218213 126 36825ft 518kts
29-Jan-17 16:28 20.551050 -100.099797 133 34443ft 476kts
29-Jan-17 16:29 20.468040 -99.993032 133 32426ft 467kts
29-Jan-17 16:30 20.390408 -99.890417 132 30715ft 457kts
29-Jan-17 16:31 20.312591 -99.785006 132 29083ft 448kts
29-Jan-17 16:32 20.236902 -99.683889 133 27097ft 432kts
29-Jan-17 16:33 20.163396 -99.586280 133 25189ft 418kts
29-Jan-17 16:34 20.092305 -99.491982 133 23356ft 404kts
29-Jan-17 16:35 20.025971 -99.403995 132 22239ft 376kts
29-Jan-17 16:36 19.961377 -99.319006 132 20450ft 363kts
29-Jan-17 16:37 19.899829 -99.237475 130 18266ft 336kts
29-Jan-17 16:38 19.847292 -99.168251 130 16457ft 288kts
29-Jan-17 16:39 19.801359 -99.107299 130 14560ft 256kts
29-Jan-17 16:40 19.757835 -99.049863 131 12467ft 246kts
29-Jan-17 16:41 19.702322 -99.010209 154 11941ft 242kts
29-Jan-17 16:42 19.641923 -98.978589 155 11959ft 242kts
29-Jan-17 16:43 19.581838 -98.947638 155 11680ft 239kts
29-Jan-17 16:44 19.525641 -98.939051 215 10674ft 210kts
29-Jan-17 16:45 19.487381 -98.983301 236 9096ft 203kts
29-Jan-17 16:46 19.457325 -99.032338 233 8077ft 197kts
29-Jan-17 16:47 19.439033 -99.064302 239 7329ft 41kts
29-Jan-17 16:48 19.436309 -99.066446 207 7329ft 18kts
29-Jan-17 16:49 19.431906 -99.067358 218 7329ft 0kts

Navigation Log

Ident Type
Flight plan parsing failed, navigation log unavailable